createdAt,value
2022-12-01T00:00:18.428Z,21.11
2022-12-01T00:01:18.363Z,21.14
2022-12-01T00:02:18.609Z,21.14
2022-12-01T00:03:18.686Z,21.19
2022-12-01T00:04:19.614Z,21.20
2022-12-01T00:05:18.390Z,21.19
2022-12-01T00:06:19.334Z,21.14
2022-12-01T00:07:18.336Z,21.13
2022-12-01T00:08:19.091Z,21.08
2022-12-01T00:09:20.157Z,21.03
2022-12-01T00:10:18.634Z,20.98
2022-12-01T00:11:18.359Z,20.88
2022-12-01T00:12:18.377Z,20.85
2022-12-01T00:13:18.901Z,20.80
2022-12-01T00:14:18.255Z,20.80
2022-12-01T00:15:18.366Z,20.77
2022-12-01T00:16:18.298Z,20.78
2022-12-01T00:17:18.241Z,20.77
2022-12-01T00:18:18.883Z,20.74
2022-12-01T00:19:18.241Z,20.73
2022-12-01T00:20:18.138Z,20.70
2022-12-01T00:21:18.151Z,20.68
2022-12-01T00:22:18.156Z,20.71
2022-12-01T00:23:18.187Z,20.73
2022-12-01T00:24:18.246Z,20.73
2022-12-01T00:25:18.225Z,20.73
2022-12-01T00:26:18.077Z,20.70
2022-12-01T00:27:19.173Z,20.67
2022-12-01T00:28:18.103Z,20.63
2022-12-01T00:29:18.219Z,20.60
2022-12-01T00:30:18.064Z,20.59
2022-12-01T00:31:18.641Z,20.56
2022-12-01T00:32:18.139Z,20.56
2022-12-01T00:33:18.082Z,20.56
2022-12-01T00:34:17.979Z,20.55
2022-12-01T00:35:18.091Z,20.56
2022-12-01T00:36:18.039Z,20.49
2022-12-01T00:37:18.010Z,20.48
2022-12-01T00:38:17.891Z,20.39
2022-12-01T00:39:18.001Z,20.36
2022-12-01T00:40:17.902Z,20.33
2022-12-01T00:41:17.916Z,20.32
2022-12-01T00:42:17.919Z,20.29
2022-12-01T00:43:18.047Z,20.30
2022-12-01T00:44:17.874Z,20.32
2022-12-01T00:45:17.942Z,20.30
2022-12-01T00:46:17.886Z,20.27
2022-12-01T00:47:17.858Z,20.24
2022-12-01T00:48:17.803Z,20.24
2022-12-01T00:49:17.878Z,20.21
2022-12-01T00:50:17.883Z,20.24
2022-12-01T00:51:17.816Z,20.24
2022-12-01T00:52:17.786Z,20.24
2022-12-01T00:53:17.899Z,20.24
2022-12-01T00:54:17.734Z,20.24
2022-12-01T00:55:17.760Z,20.24
2022-12-01T00:56:17.716Z,20.21
2022-12-01T00:57:17.720Z,20.18
2022-12-01T00:58:17.700Z,20.15
2022-12-01T00:59:17.709Z,20.11
2022-12-01T01:00:17.789Z,20.12
2022-12-01T01:01:17.814Z,20.14
2022-12-01T01:02:17.846Z,20.15
2022-12-01T01:03:17.706Z,20.14
2022-12-01T01:04:17.678Z,20.15
2022-12-01T01:05:17.716Z,20.17
2022-12-01T01:06:17.689Z,20.17
2022-12-01T01:07:17.676Z,20.15
2022-12-01T01:08:17.628Z,20.11
2022-12-01T01:09:17.650Z,20.08
2022-12-01T01:10:17.618Z,20.08
2022-12-01T01:11:17.627Z,20.07
2022-12-01T01:12:17.731Z,20.07
2022-12-01T01:13:17.584Z,20.07
2022-12-01T01:14:17.620Z,20.03
2022-12-01T01:15:17.627Z,20.02
2022-12-01T01:16:17.606Z,19.99
2022-12-01T01:17:17.566Z,19.94
2022-12-01T01:18:17.598Z,19.96
2022-12-01T01:19:17.630Z,19.93
2022-12-01T01:21:44.245Z,19.93
2022-12-01T01:21:50.080Z,19.90
2022-12-01T01:22:50.060Z,19.89
2022-12-01T01:23:50.141Z,19.90
2022-12-01T01:24:50.114Z,19.96
2022-12-01T01:25:50.008Z,19.92
2022-12-01T01:26:50.029Z,19.89
2022-12-01T01:27:50.021Z,19.87
2022-12-01T01:28:50.026Z,19.90
2022-12-01T01:29:50.372Z,19.90
2022-12-01T01:30:49.988Z,19.90
2022-12-01T01:31:49.948Z,19.90
2022-12-01T01:32:50.050Z,19.90
2022-12-01T01:33:49.959Z,19.90
2022-12-01T01:34:49.962Z,19.85
2022-12-01T01:35:50.014Z,19.82
2022-12-01T01:36:50.124Z,19.79
2022-12-01T01:37:49.896Z,19.77
2022-12-01T01:38:49.899Z,19.77
2022-12-01T01:39:50.150Z,19.74
2022-12-01T01:40:49.857Z,19.71
2022-12-01T01:41:49.921Z,19.70
2022-12-01T01:42:49.817Z,19.70
2022-12-01T01:43:49.825Z,19.71
2022-12-01T01:44:49.869Z,19.71
2022-12-01T01:45:49.890Z,19.71
2022-12-01T01:46:49.898Z,19.71
2022-12-01T01:47:49.771Z,19.71
2022-12-01T01:48:49.766Z,19.72
2022-12-01T01:49:49.997Z,19.71
2022-12-01T01:50:49.781Z,19.71
2022-12-01T01:51:49.787Z,19.70
2022-12-01T01:52:49.783Z,19.71
2022-12-01T01:53:49.700Z,19.70
2022-12-01T01:54:49.739Z,19.70
2022-12-01T01:55:49.721Z,19.70
2022-12-01T01:56:49.832Z,19.71
2022-12-01T01:57:49.751Z,19.67
2022-12-01T01:58:49.684Z,19.66
2022-12-01T01:59:49.796Z,19.67
2022-12-01T02:00:49.751Z,19.67
2022-12-01T02:01:49.708Z,19.66
2022-12-01T02:02:51.394Z,19.64
2022-12-01T02:03:49.655Z,19.67
2022-12-01T02:04:49.685Z,19.67
2022-12-01T02:05:49.584Z,19.64
2022-12-01T02:06:49.612Z,19.63
2022-12-01T02:07:49.624Z,19.64
2022-12-01T02:08:49.788Z,19.66
2022-12-01T02:09:49.958Z,19.64
2022-12-01T02:10:49.627Z,19.66
2022-12-01T02:11:49.636Z,19.67
2022-12-01T02:12:49.555Z,19.71
2022-12-01T02:13:49.640Z,19.74
2022-12-01T02:14:49.877Z,19.75
2022-12-01T02:15:49.573Z,19.74
2022-12-01T02:16:49.623Z,19.71
2022-12-01T02:17:49.576Z,19.75
2022-12-01T02:18:49.499Z,19.75
2022-12-01T02:19:49.740Z,19.78
2022-12-01T02:20:51.349Z,19.78
2022-12-01T02:21:49.515Z,19.79
2022-12-01T02:22:53.690Z,19.77
2022-12-01T02:23:49.416Z,19.77
2022-12-01T02:24:49.411Z,19.75
2022-12-01T02:25:49.418Z,19.72
2022-12-01T02:26:49.848Z,19.71
2022-12-01T02:27:49.427Z,19.64
2022-12-01T02:28:49.427Z,19.66
2022-12-01T02:29:49.678Z,19.62
2022-12-01T02:30:49.373Z,19.60
2022-12-01T02:31:49.360Z,19.59
2022-12-01T02:32:50.308Z,19.57
2022-12-01T02:33:49.388Z,19.56
2022-12-01T02:34:49.338Z,19.56
2022-12-01T02:35:49.291Z,19.57
2022-12-01T02:36:49.274Z,19.60
2022-12-01T02:37:49.294Z,19.60
2022-12-01T02:38:49.309Z,19.63
2022-12-01T02:39:49.399Z,19.64
2022-12-01T02:40:49.225Z,19.71
2022-12-01T02:41:49.317Z,19.75
2022-12-01T02:42:49.234Z,19.78
2022-12-01T02:43:49.241Z,19.78
2022-12-01T02:44:49.444Z,19.77
2022-12-01T02:45:49.315Z,19.75
2022-12-01T02:46:49.152Z,19.75
2022-12-01T02:47:49.158Z,19.72
2022-12-01T02:48:49.169Z,19.74
2022-12-01T02:49:49.469Z,19.72
2022-12-01T02:50:49.185Z,19.71
2022-12-01T02:51:49.200Z,19.67
2022-12-01T02:52:49.197Z,19.66
2022-12-01T02:53:49.105Z,19.67
2022-12-01T02:54:49.102Z,19.70
2022-12-01T02:55:49.109Z,19.67
2022-12-01T02:56:49.115Z,19.71
2022-12-01T02:57:49.042Z,19.74
2022-12-01T02:58:49.034Z,19.74
2022-12-01T02:59:49.258Z,19.72
2022-12-01T03:00:49.046Z,19.71
2022-12-01T03:01:49.071Z,19.66
2022-12-01T03:02:49.432Z,19.66
2022-12-01T03:03:48.965Z,19.60
2022-12-01T03:04:48.909Z,19.60
2022-12-01T03:05:48.967Z,19.59
2022-12-01T03:06:48.991Z,19.57
2022-12-01T03:07:49.834Z,19.56
2022-12-01T03:08:48.996Z,19.52
2022-12-01T03:09:49.387Z,19.48
2022-12-01T03:10:48.950Z,19.47
2022-12-01T03:11:48.962Z,19.45
2022-12-01T03:12:49.579Z,19.45
2022-12-01T03:13:48.859Z,19.42
2022-12-01T03:14:48.938Z,19.42
2022-12-01T03:15:48.952Z,19.42
2022-12-01T03:16:48.789Z,19.45
2022-12-01T03:17:48.851Z,19.45
2022-12-01T03:18:48.801Z,19.47
2022-12-01T03:19:49.126Z,19.47
2022-12-01T03:20:48.818Z,19.44
2022-12-01T03:21:48.724Z,19.44
2022-12-01T03:22:48.818Z,19.45
2022-12-01T03:23:48.900Z,19.45
2022-12-01T03:24:48.791Z,19.42
2022-12-01T03:25:48.737Z,19.42
2022-12-01T03:26:48.761Z,19.42
2022-12-01T03:28:13.828Z,19.42
2022-12-01T03:28:48.662Z,19.39
2022-12-01T03:29:49.540Z,19.41
2022-12-01T03:30:48.841Z,19.41
2022-12-01T03:31:48.856Z,19.39
2022-12-01T03:32:48.739Z,19.38
2022-12-01T03:33:48.591Z,19.39
2022-12-01T03:34:48.598Z,19.39
2022-12-01T03:35:48.606Z,19.39
2022-12-01T03:36:48.678Z,19.41
2022-12-01T03:37:48.568Z,19.39
2022-12-01T03:38:48.702Z,19.39
2022-12-01T03:39:48.786Z,19.41
2022-12-01T03:40:48.541Z,19.42
2022-12-01T03:41:48.601Z,19.44
2022-12-01T03:42:48.620Z,19.45
2022-12-01T03:43:48.611Z,19.47
2022-12-01T03:44:48.572Z,19.45
2022-12-01T03:45:48.564Z,19.45
2022-12-01T03:46:48.507Z,19.47
2022-12-01T03:47:48.689Z,19.47
2022-12-01T03:48:48.546Z,19.44
2022-12-01T03:49:48.822Z,19.39
2022-12-01T03:50:48.564Z,19.37
2022-12-01T03:51:48.467Z,19.35
2022-12-01T03:52:48.475Z,19.37
2022-12-01T03:53:48.479Z,19.39
2022-12-01T03:54:48.436Z,19.41
2022-12-01T03:55:48.504Z,19.39
2022-12-01T03:56:48.536Z,19.38
2022-12-01T03:57:48.400Z,19.37
2022-12-01T03:58:48.413Z,19.35
2022-12-01T03:59:48.785Z,19.35
2022-12-01T04:00:48.322Z,19.35
2022-12-01T04:01:48.428Z,19.34
2022-12-01T04:02:48.605Z,19.32
2022-12-01T04:03:48.453Z,19.32
2022-12-01T04:04:48.346Z,19.34
2022-12-01T04:05:48.354Z,19.29
2022-12-01T04:06:48.362Z,19.20
2022-12-01T04:07:48.394Z,19.16
2022-12-01T04:08:48.379Z,19.16
2022-12-01T04:09:48.680Z,19.11
2022-12-01T04:10:48.292Z,19.11
2022-12-01T04:11:48.358Z,19.08
2022-12-01T04:12:48.313Z,19.09
2022-12-01T04:13:48.317Z,19.09
2022-12-01T04:14:48.416Z,19.08
2022-12-01T04:15:48.255Z,19.08
2022-12-01T04:16:48.329Z,19.05
2022-12-01T04:17:48.166Z,19.05
2022-12-01T04:18:48.205Z,19.05
2022-12-01T04:19:48.454Z,19.07
2022-12-01T04:20:48.114Z,19.08
2022-12-01T04:21:48.115Z,19.11
2022-12-01T04:22:48.134Z,19.15
2022-12-01T04:23:48.441Z,19.19
2022-12-01T04:24:49.166Z,19.20
2022-12-01T04:25:48.155Z,19.19
2022-12-01T04:26:48.115Z,19.16
2022-12-01T04:27:48.057Z,19.17
2022-12-01T04:28:48.058Z,19.15
2022-12-01T04:29:48.717Z,19.15
2022-12-01T04:30:48.140Z,19.09
2022-12-01T04:31:48.071Z,19.07
2022-12-01T04:32:48.199Z,19.04
2022-12-01T04:33:47.963Z,19.01
2022-12-01T04:34:48.914Z,19.01
2022-12-01T04:35:49.027Z,19.04
2022-12-01T04:36:48.018Z,19.04
2022-12-01T04:37:48.018Z,19.04
2022-12-01T04:38:48.547Z,19.00
2022-12-01T04:39:48.391Z,19.01
2022-12-01T04:40:47.945Z,19.00
2022-12-01T04:41:48.054Z,19.01
2022-12-01T04:42:47.955Z,19.04
2022-12-01T04:43:47.968Z,19.04
2022-12-01T04:44:47.980Z,19.07
2022-12-01T04:45:48.178Z,19.08
2022-12-01T04:46:48.930Z,19.08
2022-12-01T04:47:47.883Z,19.04
2022-12-01T04:48:47.788Z,19.04
2022-12-01T04:49:48.277Z,19.01
2022-12-01T04:50:47.917Z,19.07
2022-12-01T04:51:47.809Z,19.07
2022-12-01T04:52:48.324Z,19.08
2022-12-01T04:53:47.826Z,19.09
2022-12-01T04:54:47.814Z,19.07
2022-12-01T04:55:47.837Z,19.04
2022-12-01T04:56:47.946Z,19.04
2022-12-01T04:57:47.846Z,19.07
2022-12-01T04:58:48.539Z,19.01
2022-12-01T04:59:48.163Z,19.04
2022-12-01T05:00:47.778Z,19.08
2022-12-01T05:01:47.796Z,19.08
2022-12-01T05:02:47.787Z,19.09
2022-12-01T05:03:47.682Z,19.09
2022-12-01T05:04:47.681Z,19.11
2022-12-01T05:05:47.694Z,19.09
2022-12-01T05:06:47.604Z,19.07
2022-12-01T05:07:47.653Z,19.05
2022-12-01T05:08:47.599Z,19.04
2022-12-01T05:09:47.959Z,18.98
2022-12-01T05:10:47.629Z,18.96
2022-12-01T05:11:47.515Z,18.94
2022-12-01T05:12:47.533Z,18.96
2022-12-01T05:13:47.534Z,18.98
2022-12-01T05:14:49.398Z,19.00
2022-12-01T05:15:47.552Z,19.04
2022-12-01T05:16:47.678Z,19.07
2022-12-01T05:17:47.584Z,19.00
2022-12-01T05:18:47.562Z,18.97
2022-12-01T05:19:47.852Z,18.97
2022-12-01T05:20:47.481Z,18.92
2022-12-01T05:21:47.491Z,18.88
2022-12-01T05:23:04.805Z,18.88
2022-12-01T05:23:47.407Z,18.85
2022-12-01T05:24:47.528Z,18.83
2022-12-01T05:25:47.427Z,18.83
2022-12-01T05:26:47.839Z,18.82
2022-12-01T05:27:47.431Z,18.79
2022-12-01T05:28:47.330Z,18.78
2022-12-01T05:29:47.776Z,18.79
2022-12-01T05:30:47.354Z,18.78
2022-12-01T05:31:47.481Z,18.81
2022-12-01T05:32:47.375Z,18.83
2022-12-01T05:33:47.377Z,18.85
2022-12-01T05:34:47.282Z,18.86
2022-12-01T05:35:47.268Z,18.85
2022-12-01T05:36:47.276Z,18.85
2022-12-01T05:37:47.285Z,18.83
2022-12-01T05:38:47.395Z,18.82
2022-12-01T05:39:47.549Z,18.82
2022-12-01T05:40:47.302Z,18.85
2022-12-01T05:41:47.207Z,18.83
2022-12-01T05:42:47.220Z,18.83
2022-12-01T05:43:47.227Z,18.83
2022-12-01T05:44:47.230Z,18.81
2022-12-01T05:45:47.303Z,18.81
2022-12-01T05:46:48.090Z,18.81
2022-12-01T05:47:47.153Z,18.81
2022-12-01T05:48:47.152Z,18.79
2022-12-01T05:49:47.572Z,18.79
2022-12-01T05:50:47.172Z,18.79
2022-12-01T05:51:47.175Z,18.82
2022-12-01T05:52:47.091Z,18.82
2022-12-01T05:53:47.096Z,18.83
2022-12-01T05:54:47.098Z,18.86
2022-12-01T05:55:47.113Z,18.91
2022-12-01T05:56:47.120Z,18.94
2022-12-01T05:57:47.021Z,18.97
2022-12-01T05:58:47.028Z,19.00
2022-12-01T05:59:47.541Z,19.05
2022-12-01T06:00:47.033Z,19.01
2022-12-01T06:01:47.086Z,19.05
2022-12-01T06:02:47.044Z,19.04
2022-12-01T06:03:47.088Z,19.00
2022-12-01T06:04:46.970Z,19.00
2022-12-01T06:05:46.975Z,19.00
2022-12-01T06:06:46.991Z,19.01
2022-12-01T06:07:46.997Z,18.98
2022-12-01T06:08:46.989Z,18.89
2022-12-01T06:09:47.130Z,18.83
2022-12-01T06:10:46.902Z,18.82
2022-12-01T06:11:51.222Z,18.79
2022-12-01T06:12:46.919Z,18.78
2022-12-01T06:13:47.963Z,18.76
2022-12-01T06:14:46.956Z,18.76
2022-12-01T06:15:46.832Z,18.79
2022-12-01T06:16:46.857Z,18.82
2022-12-01T06:17:46.846Z,18.82
2022-12-01T06:18:46.865Z,18.82
2022-12-01T06:19:47.124Z,18.79
2022-12-01T06:20:46.933Z,18.82
2022-12-01T06:21:46.899Z,18.82
2022-12-01T06:22:46.773Z,18.85
2022-12-01T06:23:46.769Z,18.86
2022-12-01T06:24:46.777Z,18.89
2022-12-01T06:25:46.799Z,18.91
2022-12-01T06:26:46.792Z,18.89
2022-12-01T06:27:46.697Z,18.91
2022-12-01T06:28:46.719Z,18.86
2022-12-01T06:29:46.707Z,18.78
2022-12-01T06:30:47.491Z,18.67
2022-12-01T06:31:46.804Z,18.61
2022-12-01T06:32:46.826Z,18.60
2022-12-01T06:33:46.632Z,18.58
2022-12-01T06:34:46.759Z,18.57
2022-12-01T06:35:46.659Z,18.55
2022-12-01T06:36:46.673Z,18.60
2022-12-01T06:37:46.683Z,18.61
2022-12-01T06:38:46.624Z,18.64
2022-12-01T06:39:46.829Z,18.63
2022-12-01T06:40:46.534Z,18.61
2022-12-01T06:41:46.588Z,18.58
2022-12-01T06:42:46.656Z,18.57
2022-12-01T06:43:46.611Z,18.57
2022-12-01T06:44:46.607Z,18.57
2022-12-01T06:45:46.575Z,18.55
2022-12-01T06:46:46.538Z,18.55
2022-12-01T06:47:46.478Z,18.55
2022-12-01T06:48:46.515Z,18.57
2022-12-01T06:49:46.526Z,18.60
2022-12-01T06:50:46.497Z,18.61
2022-12-01T06:51:46.405Z,18.61
2022-12-01T06:52:46.460Z,18.63
2022-12-01T06:53:46.424Z,18.66
2022-12-01T06:54:46.431Z,18.68
2022-12-01T06:55:46.426Z,18.71
2022-12-01T06:56:46.437Z,18.71
2022-12-01T06:57:46.387Z,18.74
2022-12-01T06:58:46.397Z,18.76
2022-12-01T06:59:46.539Z,18.79
2022-12-01T07:00:51.791Z,18.81
2022-12-01T07:01:46.447Z,18.82
2022-12-01T07:02:46.468Z,18.79
2022-12-01T07:03:46.286Z,18.79
2022-12-01T07:04:46.357Z,18.71
2022-12-01T07:05:46.456Z,18.73
2022-12-01T07:06:46.358Z,18.78
2022-12-01T07:07:46.417Z,18.81
2022-12-01T07:08:46.317Z,18.82
2022-12-01T07:09:46.647Z,18.85
2022-12-01T07:10:46.392Z,18.85
2022-12-01T07:11:46.232Z,18.86
2022-12-01T07:12:46.286Z,18.86
2022-12-01T07:13:46.354Z,18.83
2022-12-01T07:14:46.305Z,18.78
2022-12-01T07:15:47.232Z,18.74
2022-12-01T07:16:46.175Z,18.73
2022-12-01T07:17:46.217Z,18.70
2022-12-01T07:18:46.235Z,18.68
2022-12-01T07:19:46.319Z,18.68
2022-12-01T07:20:46.192Z,18.71
2022-12-01T07:21:46.152Z,18.71
2022-12-01T07:22:46.160Z,18.73
2022-12-01T07:23:46.164Z,18.71
2022-12-01T07:24:46.174Z,18.68
2022-12-01T07:25:46.088Z,18.63
2022-12-01T07:26:46.090Z,18.61
2022-12-01T07:27:46.102Z,18.58
2022-12-01T07:28:46.041Z,18.60
2022-12-01T07:29:46.320Z,18.60
2022-12-01T07:30:46.149Z,18.64
2022-12-01T07:31:46.049Z,18.66
2022-12-01T07:32:46.419Z,18.68
2022-12-01T07:33:46.018Z,18.71
2022-12-01T07:34:46.138Z,18.73
2022-12-01T07:35:45.972Z,18.74
2022-12-01T07:36:46.158Z,18.79
2022-12-01T07:37:46.048Z,18.81
2022-12-01T07:38:46.167Z,18.83
2022-12-01T07:39:46.193Z,18.82
2022-12-01T07:40:46.004Z,18.71
2022-12-01T07:41:46.089Z,18.68
2022-12-01T07:42:46.104Z,18.68
2022-12-01T07:43:46.913Z,18.68
2022-12-01T07:44:46.111Z,18.71
2022-12-01T07:45:46.080Z,18.76
2022-12-01T07:46:46.056Z,18.79
2022-12-01T07:47:46.027Z,18.85
2022-12-01T07:48:45.914Z,18.88
2022-12-01T07:49:45.944Z,18.89
2022-12-01T07:50:45.941Z,18.92
2022-12-01T07:51:45.946Z,18.96
2022-12-01T07:52:46.017Z,19.00
2022-12-01T07:53:46.683Z,19.00
2022-12-01T07:54:46.002Z,19.04
2022-12-01T07:55:45.874Z,19.07
2022-12-01T07:56:45.932Z,19.07
2022-12-01T07:57:45.886Z,19.05
2022-12-01T07:58:45.872Z,19.04
2022-12-01T07:59:45.815Z,19.00
2022-12-01T08:00:45.835Z,19.01
2022-12-01T08:01:45.869Z,19.01
2022-12-01T08:02:45.962Z,19.01
2022-12-01T08:03:45.752Z,19.00
2022-12-01T08:04:45.824Z,19.01
2022-12-01T08:05:45.764Z,19.04
2022-12-01T08:06:45.874Z,19.05
2022-12-01T08:07:45.853Z,19.07
2022-12-01T08:08:45.717Z,19.09
2022-12-01T08:09:45.735Z,19.11
2022-12-01T08:10:45.838Z,19.15
2022-12-01T08:11:45.639Z,19.17
2022-12-01T08:12:45.751Z,19.19
2022-12-01T08:13:45.669Z,19.20
2022-12-01T08:14:45.695Z,19.22
2022-12-01T08:15:45.854Z,19.24
2022-12-01T08:16:45.742Z,19.24
2022-12-01T08:17:45.678Z,19.29
2022-12-01T08:18:45.550Z,19.30
2022-12-01T08:19:45.583Z,19.30
2022-12-01T08:20:46.479Z,19.35
2022-12-01T08:21:45.608Z,19.34
2022-12-01T08:22:45.501Z,19.37
2022-12-01T08:23:45.478Z,19.39
2022-12-01T08:24:45.518Z,19.41
2022-12-01T08:25:45.490Z,19.41
2022-12-01T08:26:45.602Z,19.41
2022-12-01T08:27:45.442Z,19.41
2022-12-01T08:28:45.561Z,19.39
2022-12-01T08:29:45.448Z,19.41
2022-12-01T08:30:45.629Z,19.39
2022-12-01T08:31:45.565Z,19.38
2022-12-01T08:32:45.595Z,19.38
2022-12-01T08:33:45.587Z,19.39
2022-12-01T08:34:49.338Z,19.39
2022-12-01T08:35:45.491Z,19.39
2022-12-01T08:36:45.400Z,19.39
2022-12-01T08:37:45.399Z,19.35
2022-12-01T08:38:45.478Z,19.34
2022-12-01T08:39:45.418Z,19.30
2022-12-01T08:40:45.330Z,19.27
2022-12-01T08:41:45.425Z,19.27
2022-12-01T08:42:45.437Z,19.26
2022-12-01T08:44:01.649Z,19.24
2022-12-01T08:44:46.244Z,19.23
2022-12-01T08:45:45.235Z,19.22
2022-12-01T08:46:45.386Z,19.19
2022-12-01T08:47:45.261Z,19.17
2022-12-01T08:48:45.278Z,19.15
2022-12-01T08:49:45.181Z,19.12
2022-12-01T08:50:45.910Z,19.08
2022-12-01T08:51:45.195Z,19.05
2022-12-01T08:52:45.296Z,19.01
2022-12-01T08:53:45.879Z,19.00
2022-12-01T08:54:45.206Z,18.98
2022-12-01T08:55:45.324Z,18.98
2022-12-01T08:56:45.229Z,18.98
2022-12-01T08:57:45.128Z,18.97
2022-12-01T08:58:47.894Z,18.97
2022-12-01T08:59:45.914Z,18.97
2022-12-01T09:00:45.103Z,18.98
2022-12-01T09:01:45.038Z,18.98
2022-12-01T09:02:45.034Z,18.97
2022-12-01T09:03:45.021Z,18.97
2022-12-01T09:04:45.024Z,18.94
2022-12-01T09:05:45.028Z,18.92
2022-12-01T09:06:44.960Z,18.92
2022-12-01T09:07:45.003Z,18.94
2022-12-01T09:08:45.090Z,18.97
2022-12-01T09:09:44.952Z,18.98
2022-12-01T09:10:45.119Z,19.00
2022-12-01T09:11:44.970Z,19.04
2022-12-01T09:12:44.982Z,19.05
2022-12-01T09:13:46.791Z,19.07
2022-12-01T09:14:44.891Z,19.08
2022-12-01T09:15:45.018Z,19.11
2022-12-01T09:16:45.007Z,19.15
2022-12-01T09:17:44.942Z,19.16
2022-12-01T09:18:44.843Z,19.22
2022-12-01T09:19:44.859Z,19.22
2022-12-01T09:20:44.966Z,19.23
2022-12-01T09:21:44.835Z,19.19
2022-12-01T09:22:44.871Z,19.17
2022-12-01T09:23:44.884Z,19.12
2022-12-01T09:24:44.772Z,19.15
2022-12-01T09:25:43.866Z,19.19
2022-12-01T09:26:44.798Z,19.16
2022-12-01T09:27:44.811Z,19.19
2022-12-01T09:28:44.808Z,19.19
2022-12-01T09:29:44.819Z,19.19
2022-12-01T09:30:44.831Z,19.17
2022-12-01T09:31:44.803Z,19.17
2022-12-01T09:32:44.753Z,19.17
2022-12-01T09:33:44.759Z,19.19
2022-12-01T09:34:44.751Z,19.19
2022-12-01T09:35:44.756Z,19.22
2022-12-01T09:36:45.270Z,19.23
2022-12-01T09:37:44.673Z,19.24
2022-12-01T09:38:44.669Z,19.23
2022-12-01T09:39:44.793Z,19.23
2022-12-01T09:40:44.704Z,19.24
2022-12-01T09:41:44.702Z,19.26
2022-12-01T09:42:44.709Z,19.27
2022-12-01T09:43:44.602Z,19.29
2022-12-01T09:44:44.614Z,19.30
2022-12-01T09:45:44.607Z,19.34
2022-12-01T09:46:44.691Z,19.35
2022-12-01T09:47:44.630Z,19.37
2022-12-01T09:48:44.627Z,19.38
2022-12-01T09:49:44.538Z,19.37
2022-12-01T09:50:44.553Z,19.37
2022-12-01T09:51:44.565Z,19.38
2022-12-01T09:52:44.564Z,19.41
2022-12-01T09:53:44.566Z,19.42
2022-12-01T09:54:44.565Z,19.44
2022-12-01T09:55:44.616Z,19.45
2022-12-01T09:56:44.484Z,19.48
2022-12-01T09:57:44.490Z,19.48
2022-12-01T09:58:44.513Z,19.48
2022-12-01T09:59:44.510Z,19.48
2022-12-01T10:00:44.590Z,19.49
2022-12-01T10:01:44.452Z,19.49
2022-12-01T10:02:44.417Z,19.47
2022-12-01T10:03:44.544Z,19.45
2022-12-01T10:04:44.438Z,19.47
2022-12-01T10:06:18.084Z,19.47
2022-12-01T10:06:44.452Z,19.48
2022-12-01T10:07:44.396Z,19.48
2022-12-01T10:08:44.440Z,19.49
2022-12-01T10:09:44.391Z,19.48
2022-12-01T10:10:45.203Z,19.45
2022-12-01T10:11:45.390Z,19.38
2022-12-01T10:12:44.386Z,19.35
2022-12-01T10:13:44.299Z,19.34
2022-12-01T10:14:44.395Z,19.32
2022-12-01T10:15:44.303Z,19.30
2022-12-01T10:16:44.390Z,19.32
2022-12-01T10:17:44.218Z,19.32
2022-12-01T10:18:44.327Z,19.30
2022-12-01T10:19:44.232Z,19.30
2022-12-01T10:20:44.352Z,19.30
2022-12-01T10:21:44.345Z,19.27
2022-12-01T10:22:44.260Z,19.27
2022-12-01T10:23:44.163Z,19.29
2022-12-01T10:24:44.764Z,19.27
2022-12-01T10:25:44.277Z,19.27
2022-12-01T10:26:44.178Z,19.30
2022-12-01T10:27:44.296Z,19.32
2022-12-01T10:28:44.198Z,19.34
2022-12-01T10:29:47.530Z,19.37
2022-12-01T10:30:44.413Z,19.39
2022-12-01T10:31:44.207Z,19.44
2022-12-01T10:32:44.208Z,19.44
2022-12-01T10:33:44.632Z,19.41
2022-12-01T10:34:44.129Z,19.41
2022-12-01T10:35:44.028Z,19.42
2022-12-01T10:36:44.143Z,19.45
2022-12-01T10:37:44.163Z,19.47
2022-12-01T10:38:44.059Z,19.49
2022-12-01T10:39:44.070Z,19.52
2022-12-01T10:40:44.068Z,19.56
2022-12-01T10:41:43.972Z,19.57
2022-12-01T10:42:43.981Z,19.59
2022-12-01T10:43:43.994Z,19.59
2022-12-01T10:44:44.711Z,19.60
2022-12-01T10:45:44.589Z,19.63
2022-12-01T10:46:43.998Z,19.67
2022-12-01T10:47:43.916Z,19.67
2022-12-01T10:48:44.227Z,19.67
2022-12-01T10:49:43.914Z,19.70
2022-12-01T10:50:43.928Z,19.72
2022-12-01T10:51:43.941Z,19.74
2022-12-01T10:52:44.294Z,19.78
2022-12-01T10:53:43.854Z,19.81
2022-12-01T10:54:43.965Z,19.78
2022-12-01T10:55:47.936Z,19.79
2022-12-01T10:56:43.968Z,19.81
2022-12-01T10:57:43.822Z,19.79
2022-12-01T10:58:43.826Z,19.82
2022-12-01T10:59:45.773Z,19.81
2022-12-01T11:00:59.198Z,19.82
2022-12-01T11:01:43.914Z,19.85
2022-12-01T11:02:43.914Z,19.89
2022-12-01T11:03:43.804Z,19.92
2022-12-01T11:04:43.721Z,19.93
2022-12-01T11:05:43.770Z,19.97
2022-12-01T11:06:43.683Z,19.99
2022-12-01T11:07:43.714Z,20.03
2022-12-01T11:08:43.700Z,20.07
2022-12-01T11:09:43.697Z,20.08
2022-12-01T11:10:43.649Z,20.07
2022-12-01T11:11:43.665Z,20.08
2022-12-01T11:12:43.727Z,20.11
2022-12-01T11:13:43.679Z,20.12
2022-12-01T11:14:43.583Z,20.08
2022-12-01T11:15:44.043Z,20.11
2022-12-01T11:16:43.705Z,20.15
2022-12-01T11:17:43.833Z,20.18
2022-12-01T11:18:43.717Z,20.21
2022-12-01T11:19:43.662Z,20.22
2022-12-01T11:20:43.655Z,20.27
2022-12-01T11:21:43.571Z,20.27
2022-12-01T11:22:43.570Z,20.27
2022-12-01T11:23:43.475Z,20.26
2022-12-01T11:24:43.599Z,20.24
2022-12-01T11:25:43.493Z,20.27
2022-12-01T11:26:44.010Z,20.29
2022-12-01T11:27:43.463Z,20.32
2022-12-01T11:28:43.780Z,20.34
2022-12-01T11:29:43.631Z,20.37
2022-12-01T11:30:43.564Z,20.40
2022-12-01T11:31:43.533Z,20.40
2022-12-01T11:32:43.436Z,20.42
2022-12-01T11:33:43.770Z,20.42
2022-12-01T11:34:43.465Z,20.39
2022-12-01T11:35:43.454Z,20.37
2022-12-01T11:36:43.465Z,20.40
2022-12-01T11:37:50.484Z,20.42
2022-12-01T11:38:43.372Z,20.46
2022-12-01T11:39:43.383Z,20.44
2022-12-01T11:40:43.389Z,20.48
2022-12-01T11:41:43.392Z,20.49
2022-12-01T11:42:43.948Z,20.52
2022-12-01T11:43:46.758Z,20.55
2022-12-01T11:44:51.306Z,20.59
2022-12-01T11:45:44.187Z,20.63
2022-12-01T11:46:50.278Z,20.66
2022-12-01T11:47:43.342Z,20.68
2022-12-01T11:48:43.343Z,20.70
2022-12-01T11:49:47.051Z,20.74
2022-12-01T11:50:43.252Z,20.83
2022-12-01T11:51:43.354Z,20.90
2022-12-01T11:52:43.261Z,20.93
2022-12-01T11:53:43.264Z,20.95
2022-12-01T11:54:43.562Z,20.98
2022-12-01T11:55:43.177Z,21.01
2022-12-01T11:56:43.287Z,21.03
2022-12-01T11:57:43.202Z,21.04
2022-12-01T11:58:43.278Z,21.07
2022-12-01T11:59:43.124Z,21.07
2022-12-01T12:00:43.928Z,21.11
2022-12-01T12:01:44.357Z,21.13
2022-12-01T12:02:43.229Z,21.17
2022-12-01T12:03:43.362Z,21.20
2022-12-01T12:04:43.863Z,21.23
2022-12-01T12:05:43.052Z,21.28
2022-12-01T12:06:43.068Z,21.32
2022-12-01T12:07:43.103Z,21.37
2022-12-01T12:08:43.062Z,21.43
2022-12-01T12:09:45.792Z,21.43
2022-12-01T12:10:43.240Z,21.45
2022-12-01T12:11:42.993Z,21.48
2022-12-01T12:12:43.092Z,21.51
2022-12-01T12:13:43.310Z,21.56
2022-12-01T12:14:43.111Z,21.62
2022-12-01T12:15:43.281Z,21.66
2022-12-01T12:16:43.018Z,21.72
2022-12-01T12:17:44.726Z,21.77
2022-12-01T12:18:44.457Z,21.81
2022-12-01T12:20:07.256Z,21.88
2022-12-01T12:20:42.945Z,21.96
2022-12-01T12:21:43.653Z,22.01
2022-12-01T12:22:42.951Z,22.12
2022-12-01T12:23:42.864Z,22.22
2022-12-01T12:24:44.513Z,22.30
2022-12-01T12:25:44.933Z,22.40
2022-12-01T12:26:43.799Z,22.49
2022-12-01T12:27:43.207Z,22.56
2022-12-01T12:28:43.824Z,22.63
2022-12-01T12:29:42.807Z,22.76
2022-12-01T12:30:43.962Z,22.86
2022-12-01T12:31:42.815Z,22.99
2022-12-01T12:32:43.558Z,23.13
2022-12-01T12:33:43.543Z,23.25
2022-12-01T12:34:43.058Z,23.33
2022-12-01T12:35:43.259Z,23.40
2022-12-01T12:36:48.884Z,23.49
2022-12-01T12:37:42.967Z,23.54
2022-12-01T12:38:42.752Z,23.52
2022-12-01T12:39:43.072Z,23.52
2022-12-01T12:40:43.033Z,23.56
2022-12-01T12:41:42.728Z,23.63
2022-12-01T12:42:43.190Z,23.73
2022-12-01T12:43:43.610Z,23.84
2022-12-01T12:44:43.726Z,23.95
2022-12-01T12:45:42.703Z,24.04
2022-12-01T12:46:42.772Z,24.13
2022-12-01T12:47:42.603Z,24.13
2022-12-01T12:49:11.563Z,24.11
2022-12-01T12:49:43.543Z,24.09
2022-12-01T12:50:42.736Z,24.10
2022-12-01T12:51:42.647Z,24.03
2022-12-01T12:52:42.595Z,24.04